Time;durP1;ratioP1;P1;durP2;ratioP2;P2;SDS_P1;SDS_P2;PMS_P1;PMS_P2;Temp;Humidity;BMP_temperature;BMP_pressure;BME280_temperature;BME280_humidity;BME280_pressure;Samples;Min_cycle;Max_cycle;Signal;HPM_P1;HPM_P2
2023/08/15 05:51:31;;;;;;;15.07;14.07;;;23.00;52.90;;;;;;5190874;27;21002;-58
2023/08/15 05:53:57;;;;;;;15.67;14.67;;;23.10;53.20;;;;;;5120119;27;20184;-58
2023/08/15 05:56:22;;;;;;;15.10;14.00;;;23.10;52.80;;;;;;5131841;27;20216;-58
2023/08/15 05:58:48;;;;;;;15.77;14.63;;;23.20;52.40;;;;;;5130966;27;20181;-57
2023/08/15 06:01:14;;;;;;;15.90;15.10;;;23.20;52.00;;;;;;5132201;27;20179;-58
2023/08/15 06:03:39;;;;;;;16.77;15.73;;;23.20;51.80;;;;;;5132423;27;20169;-58
2023/08/15 06:06:05;;;;;;;17.17;16.17;;;23.10;51.50;;;;;;5132386;27;20181;-58
2023/08/15 06:08:30;;;;;;;16.93;15.77;;;23.20;51.60;;;;;;5132000;27;20263;-58
2023/08/15 06:10:56;;;;;;;17.00;16.13;;;23.20;51.30;;;;;;5132295;27;20204;-58
2023/08/15 06:13:21;;;;;;;15.00;14.10;;;23.20;51.30;;;;;;5132100;27;20187;-57
2023/08/15 06:15:47;;;;;;;15.17;14.33;;;23.20;51.30;;;;;;5132189;27;20176;-57
2023/08/15 06:18:13;;;;;;;16.97;15.97;;;23.20;51.40;;;;;;5131905;27;20632;-58
2023/08/15 06:20:39;;;;;;;17.67;16.50;;;23.20;52.20;;;;;;5132084;27;20177;-58
2023/08/15 06:23:04;;;;;;;15.90;15.00;;;23.30;51.80;;;;;;5132080;27;20205;-58
2023/08/15 06:25:30;;;;;;;17.10;16.10;;;23.30;51.90;;;;;;5131985;27;20187;-59
2023/08/15 06:27:56;;;;;;;16.33;15.23;;;23.30;51.70;;;;;;5131556;27;20187;-57
2023/08/15 06:30:21;;;;;;;16.17;15.27;;;23.30;51.30;;;;;;5131585;27;20566;-55
2023/08/15 06:32:47;;;;;;;16.93;15.83;;;23.40;50.80;;;;;;5129689;27;20183;-56
2023/08/15 06:35:13;;;;;;;16.53;15.53;;;23.40;50.30;;;;;;5129043;27;20169;-56
2023/08/15 06:37:39;;;;;;;17.87;16.43;;;23.40;50.10;;;;;;5130943;27;20250;-56
2023/08/15 06:40:07;;;;;;;16.73;15.80;;;23.40;49.60;;;;;;5148271;27;20417;-56
2023/08/15 06:42:33;;;;;;;16.70;15.60;;;23.40;49.00;;;;;;5151407;27;20820;-56
2023/08/15 06:45:11;;;;;;;16.67;15.80;;;23.40;48.40;;;;;;5151424;27;20417;-57
2023/08/15 06:47:37;;;;;;;16.40;15.60;;;23.40;48.00;;;;;;5150942;27;20199;-57
2023/08/15 06:50:03;;;;;;;17.33;16.50;;;23.40;47.90;;;;;;5151029;27;21014;-58
2023/08/15 06:52:29;;;;;;;19.17;17.87;;;23.50;48.00;;;;;;5151843;27;20409;-58
2023/08/15 06:54:54;;;;;;;17.40;16.60;;;23.50;47.60;;;;;;5170653;27;20908;-58
2023/08/15 06:57:20;;;;;;;16.03;15.23;;;23.50;45.20;;;;;;5151975;27;20565;-58
2023/08/15 06:59:46;;;;;;;16.97;16.17;;;23.60;44.00;;;;;;5170375;27;20183;-56
2023/08/15 07:02:11;;;;;;;18.10;17.17;;;23.50;43.40;;;;;;5142173;27;20169;-57
2023/08/15 07:04:40;;;;;;;17.00;16.10;;;23.60;43.50;;;;;;5133104;27;20189;-57
2023/08/15 07:07:07;;;;;;;15.70;14.90;;;23.60;43.40;;;;;;5156485;27;20184;-57
2023/08/15 07:09:35;;;;;;;17.43;16.43;;;23.70;43.60;;;;;;5156801;27;20448;-57
2023/08/15 07:12:04;;;;;;;17.20;16.10;;;23.70;42.10;;;;;;5157623;27;20409;-58
2023/08/15 07:14:31;;;;;;;18.03;16.90;;;23.70;41.20;;;;;;5157750;27;20504;-56
2023/08/15 07:16:56;;;;;;;17.80;16.80;;;23.80;41.00;;;;;;5158592;27;20405;-57
2023/08/15 07:19:22;;;;;;;18.00;17.10;;;23.90;40.80;;;;;;5158378;27;20426;-56
2023/08/15 07:21:48;;;;;;;16.83;15.80;;;23.90;40.90;;;;;;5158561;27;20179;-57
2023/08/15 07:24:15;;;;;;;18.23;17.33;;;24.00;40.80;;;;;;5158217;27;20417;-57
2023/08/15 07:26:41;;;;;;;16.80;16.00;;;24.00;40.20;;;;;;5158384;27;20408;-56
2023/08/15 07:29:06;;;;;;;17.33;16.43;;;24.10;40.70;;;;;;5158166;27;20424;-57
2023/08/15 07:31:32;;;;;;;17.93;17.00;;;24.10;40.90;;;;;;5158270;27;20650;-57
2023/08/15 07:33:57;;;;;;;18.17;17.17;;;24.20;41.10;;;;;;5158292;27;20208;-57
2023/08/15 07:36:23;;;;;;;17.60;16.70;;;24.20;40.60;;;;;;5158289;27;20188;-57
2023/08/15 07:38:49;;;;;;;17.23;16.13;;;24.20;40.20;;;;;;5157928;27;20586;-57
2023/08/15 07:41:15;;;;;;;16.83;15.70;;;24.20;40.30;;;;;;5158126;27;20496;-56
2023/08/15 07:43:40;;;;;;;18.57;17.30;;;24.30;40.20;;;;;;5158158;27;20219;-56
2023/08/15 07:46:06;;;;;;;16.03;15.13;;;24.40;39.60;;;;;;5157993;27;20622;-57
2023/08/15 07:48:31;;;;;;;17.40;16.50;;;24.50;39.10;;;;;;5157758;27;20178;-57
2023/08/15 07:50:57;;;;;;;17.43;16.53;;;24.50;38.90;;;;;;5157818;27;20219;-57
2023/08/15 07:53:23;;;;;;;15.93;15.10;;;24.50;38.60;;;;;;5157923;27;20183;-57
2023/08/15 07:55:51;;;;;;;15.33;14.63;;;24.60;38.90;;;;;;5157732;27;20196;-57
2023/08/15 07:58:16;;;;;;;15.53;14.80;;;24.60;39.20;;;;;;5157534;27;20262;-57
2023/08/15 08:00:42;;;;;;;16.40;15.20;;;24.70;39.40;;;;;;5176429;27;20981;-57
2023/08/15 08:03:08;;;;;;;15.27;14.53;;;24.70;39.30;;;;;;5157736;27;20172;-56
2023/08/15 08:05:34;;;;;;;16.70;15.90;;;24.80;38.20;;;;;;5157613;27;20409;-57
2023/08/15 08:08:01;;;;;;;16.00;15.20;;;24.80;37.90;;;;;;5157413;27;20413;-57
2023/08/15 08:10:27;;;;;;;15.10;14.30;;;24.80;38.00;;;;;;5157402;27;20467;-57
2023/08/15 08:12:53;;;;;;;16.20;15.40;;;24.90;37.50;;;;;;5175369;27;20412;-56
2023/08/15 08:15:23;;;;;;;16.33;15.43;;;24.90;37.60;;;;;;5157210;27;20508;-58
2023/08/15 08:17:49;;;;;;;16.47;15.67;;;24.90;37.80;;;;;;5157234;27;20905;-57
2023/08/15 08:20:17;;;;;;;16.10;15.10;;;25.00;37.60;;;;;;5157308;27;20405;-57
2023/08/15 08:22:42;;;;;;;16.47;15.53;;;25.00;38.10;;;;;;5157323;27;20760;-57
2023/08/15 08:25:18;;;;;;;16.07;15.20;;;25.10;38.50;;;;;;5157196;27;20449;-58
2023/08/15 08:27:44;;;;;;;17.27;16.27;;;25.10;37.40;;;;;;5157198;27;20188;-58
2023/08/15 08:30:12;;;;;;;15.50;14.50;;;25.20;36.50;;;;;;5156820;27;20552;-57
2023/08/15 08:32:37;;;;;;;17.17;16.10;;;25.30;36.00;;;;;;5157049;27;20496;-57
2023/08/15 08:35:05;;;;;;;15.67;14.40;;;25.40;34.50;;;;;;5157049;27;20512;-57
2023/08/15 08:37:34;;;;;;;15.73;14.83;;;25.50;34.50;;;;;;5156955;27;20262;-58
2023/08/15 08:39:59;;;;;;;15.10;14.30;;;25.50;34.50;;;;;;5156842;27;20811;-57
2023/08/15 08:42:25;;;;;;;18.50;15.47;;;25.50;34.50;;;;;;5156828;27;20420;-58
2023/08/15 08:44:52;;;;;;;16.87;15.73;;;25.50;34.50;;;;;;5156853;27;20275;-58
2023/08/15 08:47:20;;;;;;;16.23;15.33;;;25.70;33.80;;;;;;5156704;27;20175;-58
2023/08/15 08:49:47;;;;;;;17.00;15.90;;;25.70;33.00;;;;;;5156451;27;20487;-58
2023/08/15 08:52:13;;;;;;;16.27;15.37;;;25.70;33.50;;;;;;5156631;27;20412;-57
2023/08/15 08:54:39;;;;;;;16.47;15.67;;;25.70;33.60;;;;;;5156650;27;20412;-57
2023/08/15 08:57:07;;;;;;;19.70;18.17;;;25.70;33.60;;;;;;5156784;27;20752;-56
2023/08/15 08:59:35;;;;;;;17.00;15.77;;;25.80;33.10;;;;;;5156155;27;20417;-58
2023/08/15 09:02:01;;;;;;;16.03;15.13;;;25.70;33.40;;;;;;5156493;27;20413;-57
2023/08/15 09:04:27;;;;;;;16.50;15.67;;;25.70;33.70;;;;;;5156467;27;20540;-58
2023/08/15 09:06:53;;;;;;;16.50;15.70;;;25.70;32.90;;;;;;5156412;27;20582;-58
2023/08/15 09:09:19;;;;;;;17.33;16.00;;;25.90;33.10;;;;;;5156145;27;20647;-57
2023/08/15 09:11:50;;;;;;;16.10;15.33;;;26.00;32.50;;;;;;5156620;27;20409;-57
2023/08/15 09:14:17;;;;;;;16.13;15.23;;;26.10;31.90;;;;;;5156185;27;20773;-58
2023/08/15 09:16:48;;;;;;;16.90;16.00;;;26.10;32.40;;;;;;5156196;27;20413;-58
2023/08/15 09:19:14;;;;;;;16.70;15.83;;;26.30;30.80;;;;;;5156019;27;20751;-57
2023/08/15 09:21:40;;;;;;;18.40;16.90;;;26.40;29.20;;;;;;5156357;27;20409;-57
2023/08/15 09:24:07;;;;;;;17.17;15.83;;;26.50;29.40;;;;;;5155872;27;20415;-57
2023/08/15 09:26:33;;;;;;;16.40;15.50;;;26.60;26.60;;;;;;5156041;27;20183;-58
2023/08/15 09:28:59;;;;;;;14.77;14.13;;;26.80;26.00;;;;;;5155888;27;20413;-58
2023/08/15 09:31:25;;;;;;;14.03;13.00;;;26.90;26.10;;;;;;5156022;27;20485;-58
2023/08/15 09:33:51;;;;;;;14.40;13.47;;;27.20;21.90;;;;;;5156051;27;20258;-58
2023/08/15 09:36:18;;;;;;;13.23;12.47;;;27.30;20.30;;;;;;5155987;27;20522;-58
2023/08/15 09:38:43;;;;;;;13.63;12.40;;;27.20;17.20;;;;;;5155666;27;20172;-58
2023/08/15 09:41:11;;;;;;;12.30;11.70;;;27.40;17.70;;;;;;5156016;27;20546;-59
2023/08/15 09:43:49;;;;;;;12.20;11.70;;;27.50;14.80;;;;;;5155980;27;20176;-58
2023/08/15 09:46:16;;;;;;;13.20;12.13;;;27.60;14.70;;;;;;5155762;27;20432;-58
2023/08/15 09:48:44;;;;;;;12.50;11.90;;;27.60;14.60;;;;;;5155733;27;21097;-58
2023/08/15 09:51:13;;;;;;;12.00;11.50;;;27.60;15.80;;;;;;5155526;27;20865;-58
2023/08/15 09:53:41;;;;;;;12.10;11.40;;;27.50;14.70;;;;;;5155804;27;20543;-57
2023/08/15 09:56:06;;;;;;;12.27;11.57;;;27.60;14.70;;;;;;5155661;27;20421;-57
2023/08/15 09:58:32;;;;;;;11.80;11.20;;;27.60;14.00;;;;;;5155519;27;20405;-58
2023/08/15 10:00:58;;;;;;;11.87;11.17;;;27.60;14.50;;;;;;5155784;27;20669;-58
2023/08/15 10:03:31;;;;;;;11.10;10.50;;;27.70;15.70;;;;;;5155662;27;20171;-58
2023/08/15 10:05:57;;;;;;;11.17;10.67;;;27.70;14.50;;;;;;5155607;27;20781;-58
2023/08/15 10:08:24;;;;;;;10.90;10.30;;;27.60;14.10;;;;;;5155283;27;20523;-57
2023/08/15 10:10:51;;;;;;;11.80;11.00;;;27.60;15.20;;;;;;5155458;27;20465;-56
2023/08/15 10:13:21;;;;;;;11.70;11.20;;;27.50;14.60;;;;;;5155518;27;20397;-57
2023/08/15 10:15:47;;;;;;;11.70;10.80;;;27.50;14.80;;;;;;5155654;27;20419;-58
2023/08/15 10:18:13;;;;;;;11.60;11.00;;;27.60;15.00;;;;;;5155315;27;20908;-58
2023/08/15 10:20:39;;;;;;;11.27;10.67;;;27.60;15.00;;;;;;5155540;27;20904;-57
2023/08/15 10:23:08;;;;;;;11.60;10.90;;;27.50;15.70;;;;;;5155461;27;20416;-57
2023/08/15 10:25:39;;;;;;;11.40;10.60;;;27.40;16.30;;;;;;5155668;27;20213;-57
2023/08/15 10:28:09;;;;;;;11.20;10.63;;;27.30;16.00;;;;;;5155352;27;20417;-58
2023/08/15 10:30:36;;;;;;;10.83;10.33;;;27.40;15.20;;;;;;5155356;27;20470;-58
2023/08/15 10:33:11;;;;;;;11.37;10.80;;;27.40;15.70;;;;;;5155336;27;20416;-58
2023/08/15 10:35:36;;;;;;;10.77;10.07;;;27.40;15.90;;;;;;5155319;27;20412;-58
2023/08/15 10:38:13;;;;;;;11.50;10.40;;;27.30;16.10;;;;;;5156013;27;20820;-57
2023/08/15 10:40:40;;;;;;;13.27;11.70;;;27.40;15.20;;;;;;5131425;27;20204;-58
2023/08/15 10:43:07;;;;;;;11.60;10.80;;;27.40;15.50;;;;;;5137977;27;20414;-58
2023/08/15 10:45:53;;;;;;;11.07;10.43;;;27.40;15.50;;;;;;5137819;27;20449;-58
2023/08/15 10:48:44;;;;;;;10.37;9.87;;;27.40;16.10;;;;;;5136832;27;20414;-57
2023/08/15 10:51:23;;;;;;;9.90;9.30;;;27.30;16.00;;;;;;5135743;27;20457;-57
2023/08/15 10:53:57;;;;;;;11.23;10.07;;;27.40;14.40;;;;;;5137763;27;20449;-58
2023/08/15 10:56:25;;;;;;;10.90;10.17;;;27.50;13.90;;;;;;5137712;27;20453;-58
2023/08/15 10:58:51;;;;;;;10.20;9.40;;;27.70;13.40;;;;;;5137051;27;20414;-57
2023/08/15 11:01:21;;;;;;;8.67;8.27;;;28.00;11.60;;;;;;5137039;27;20537;-58
2023/08/15 11:03:50;;;;;;;9.83;9.13;;;28.10;10.40;;;;;;5137036;27;20181;-58
2023/08/15 11:06:17;;;;;;;9.50;8.80;;;28.10;10.40;;;;;;5137303;27;20772;-57
2023/08/15 11:08:50;;;;;;;8.93;8.63;;;28.20;10.50;;;;;;5136483;27;20514;-57
2023/08/15 11:11:17;;;;;;;9.90;9.30;;;28.20;10.70;;;;;;5136590;27;20465;-57
2023/08/15 11:13:45;;;;;;;8.90;8.60;;;28.10;11.80;;;;;;5136693;27;20411;-57
2023/08/15 11:16:11;;;;;;;9.77;9.37;;;28.00;11.60;;;;;;5136754;27;20406;-57
2023/08/15 11:18:37;;;;;;;10.10;9.20;;;27.90;11.90;;;;;;5137081;27;20402;-57
2023/08/15 11:21:07;;;;;;;10.07;9.20;;;27.80;11.90;;;;;;5137351;27;20701;-57
2023/08/15 11:23:33;;;;;;;9.80;9.20;;;27.80;11.90;;;;;;5137334;27;20912;-57
2023/08/15 11:26:01;;;;;;;10.93;9.67;;;27.80;12.00;;;;;;5137070;27;20425;-57
2023/08/15 11:28:26;;;;;;;10.47;9.67;;;27.90;12.30;;;;;;5136775;27;20429;-58
2023/08/15 11:30:52;;;;;;;9.73;8.77;;;27.90;12.40;;;;;;5136820;27;20449;-58
2023/08/15 11:33:19;;;;;;;10.60;10.00;;;28.00;12.00;;;;;;5136382;27;20176;-58
2023/08/15 11:35:47;;;;;;;9.27;8.87;;;28.20;12.00;;;;;;5136486;27;20544;-58
2023/08/15 11:38:16;;;;;;;9.30;8.90;;;28.30;11.80;;;;;;5155612;27;20406;-59
2023/08/15 11:40:43;;;;;;;9.70;9.30;;;28.40;11.90;;;;;;5137416;27;20414;-59
2023/08/15 11:43:08;;;;;;;11.13;9.97;;;28.40;12.70;;;;;;5137161;27;20902;-59
2023/08/15 11:45:34;;;;;;;10.80;9.77;;;28.40;13.20;;;;;;5155886;27;20409;-59
2023/08/15 11:48:02;;;;;;;10.83;10.10;;;28.20;13.50;;;;;;5155452;27;20172;-58
2023/08/15 11:50:30;;;;;;;10.17;9.77;;;28.10;13.60;;;;;;5136814;27;20208;-59
2023/08/15 11:52:56;;;;;;;10.63;10.10;;;28.00;14.40;;;;;;5137202;27;20501;-59
2023/08/15 11:55:22;;;;;;;10.87;10.37;;;28.10;14.60;;;;;;5137107;27;20505;-59
2023/08/15 11:57:50;;;;;;;11.60;11.00;;;28.00;15.40;;;;;;5137025;27;20453;-59
2023/08/15 12:00:19;;;;;;;12.60;12.00;;;27.90;16.00;;;;;;5136734;27;20467;-59
2023/08/15 12:02:49;;;;;;;12.30;11.70;;;27.80;17.70;;;;;;5136963;27;20421;-59
2023/08/15 12:05:18;;;;;;;13.40;12.50;;;27.80;17.90;;;;;;5136678;27;20425;-58
2023/08/15 12:07:48;;;;;;;13.90;13.00;;;27.70;18.20;;;;;;5136809;27;20418;-59
2023/08/15 12:10:15;;;;;;;14.40;13.50;;;27.80;18.60;;;;;;5136670;27;20992;-58
2023/08/15 12:12:47;;;;;;;14.13;13.43;;;27.70;18.80;;;;;;5136802;27;20406;-59
2023/08/15 12:15:15;;;;;;;13.90;13.20;;;27.70;18.90;;;;;;5146070;27;20560;-58
2023/08/15 12:17:41;;;;;;;14.60;13.70;;;27.60;19.00;;;;;;5136521;27;20462;-59
2023/08/15 12:20:14;;;;;;;13.83;13.13;;;27.60;19.10;;;;;;5135996;27;20433;-59
2023/08/15 12:22:40;;;;;;;14.90;14.10;;;27.50;19.50;;;;;;5135527;27;20413;-58
2023/08/15 12:25:10;;;;;;;14.87;14.00;;;27.50;21.00;;;;;;5136802;27;20414;-58
2023/08/15 12:27:37;;;;;;;14.17;13.50;;;27.50;21.80;;;;;;5137269;27;20430;-58
2023/08/15 12:30:04;;;;;;;15.07;14.07;;;27.50;22.10;;;;;;5115574;27;20619;-57
2023/08/15 12:32:29;;;;;;;13.33;12.73;;;27.50;21.60;;;;;;5132690;27;20411;-57
2023/08/15 12:34:55;;;;;;;15.47;14.37;;;27.50;21.10;;;;;;5135860;27;20413;-58
2023/08/15 12:37:23;;;;;;;13.93;13.17;;;27.50;21.40;;;;;;5135755;27;20200;-58
2023/08/15 12:39:48;;;;;;;13.97;13.30;;;27.50;20.10;;;;;;5135753;27;20180;-58
2023/08/15 12:42:14;;;;;;;15.70;14.47;;;27.60;19.70;;;;;;5154656;27;20461;-59
2023/08/15 12:44:42;;;;;;;13.40;12.70;;;27.70;19.70;;;;;;5136043;27;20181;-58
2023/08/15 12:47:09;;;;;;;14.00;13.20;;;27.90;19.00;;;;;;5136145;27;20237;-57
2023/08/15 12:49:37;;;;;;;12.47;11.87;;;27.90;19.50;;;;;;5135541;27;20948;-58
2023/08/15 12:52:04;;;;;;;11.90;11.00;;;28.00;16.10;;;;;;5135991;27;20869;-58
2023/08/15 12:54:30;;;;;;;11.60;10.80;;;28.10;16.20;;;;;;5135787;27;20779;-57
2023/08/15 12:56:56;;;;;;;11.20;10.50;;;28.00;15.60;;;;;;5136002;27;20407;-58
2023/08/15 12:59:22;;;;;;;11.77;10.80;;;28.00;15.20;;;;;;5134468;27;20624;-58
2023/08/15 13:01:48;;;;;;;10.53;10.10;;;27.90;15.20;;;;;;5133972;27;20767;-57
2023/08/15 13:04:14;;;;;;;10.13;9.63;;;27.80;15.00;;;;;;5134145;27;20172;-58
2023/08/15 13:06:41;;;;;;;11.10;10.30;;;27.90;14.80;;;;;;5137995;27;20778;-58
2023/08/15 13:09:09;;;;;;;11.23;10.67;;;28.40;13.80;;;;;;5132992;27;20165;-58
2023/08/15 13:11:36;;;;;;;10.50;10.03;;;28.30;14.00;;;;;;5130825;27;20948;-58
2023/08/15 13:14:03;;;;;;;11.97;11.07;;;28.20;15.20;;;;;;5133624;27;20418;-57
2023/08/15 13:16:29;;;;;;;10.30;9.90;;;28.20;15.20;;;;;;5132643;27;20413;-57
2023/08/15 13:18:55;;;;;;;10.37;9.87;;;28.10;15.30;;;;;;5133500;27;20443;-57
2023/08/15 13:21:20;;;;;;;10.50;9.80;;;28.00;15.60;;;;;;5134081;27;20224;-57
2023/08/15 13:23:46;;;;;;;10.40;9.70;;;27.90;15.40;;;;;;5134760;27;20180;-57
2023/08/15 13:26:13;;;;;;;10.63;10.13;;;28.00;15.30;;;;;;5133958;27;20204;-57
2023/08/15 13:28:39;;;;;;;9.93;9.50;;;28.20;14.90;;;;;;5134996;27;20501;-57
2023/08/15 13:31:04;;;;;;;10.67;10.07;;;28.20;15.30;;;;;;5135340;27;20489;-57
2023/08/15 13:33:31;;;;;;;10.40;9.80;;;28.20;15.20;;;;;;5135348;27;20465;-59
2023/08/15 13:35:57;;;;;;;10.93;10.40;;;28.10;15.10;;;;;;5135459;27;20176;-59
2023/08/15 13:38:22;;;;;;;10.43;9.83;;;28.10;15.60;;;;;;5135084;27;20901;-59
2023/08/15 13:40:48;;;;;;;10.63;10.03;;;28.00;16.50;;;;;;5135231;27;20173;-58
2023/08/15 13:43:14;;;;;;;12.57;11.77;;;27.90;16.70;;;;;;5135180;27;20187;-58
2023/08/15 13:45:40;;;;;;;11.90;11.20;;;27.80;17.10;;;;;;5135289;27;20181;-60
2023/08/15 13:48:06;;;;;;;11.33;10.63;;;27.80;17.90;;;;;;5134970;27;20413;-60
2023/08/15 13:50:32;;;;;;;10.43;9.73;;;27.90;18.90;;;;;;5134881;27;20465;-58
2023/08/15 13:52:57;;;;;;;11.43;10.70;;;27.90;19.00;;;;;;5135236;27;20565;-58
2023/08/15 13:55:23;;;;;;;12.00;11.00;;;27.80;19.30;;;;;;5135033;27;20184;-58
2023/08/15 13:57:49;;;;;;;10.40;9.90;;;27.70;19.40;;;;;;5135008;27;20169;-58
2023/08/15 14:00:15;;;;;;;10.40;9.80;;;27.70;19.40;;;;;;5134875;27;20423;-58
2023/08/15 14:02:41;;;;;;;10.80;10.10;;;27.70;19.40;;;;;;5135038;27;20191;-59
2023/08/15 14:05:06;;;;;;;10.80;10.30;;;27.60;19.80;;;;;;5134969;27;20410;-59
2023/08/15 14:07:32;;;;;;;11.40;10.70;;;27.60;20.00;;;;;;5134924;27;20185;-60
2023/08/15 14:09:58;;;;;;;12.17;11.57;;;27.60;19.80;;;;;;5134711;27;20457;-59
2023/08/15 14:12:26;;;;;;;11.60;10.67;;;27.50;20.00;;;;;;5137624;27;20180;-59
2023/08/15 14:14:51;;;;;;;10.50;9.83;;;27.50;19.80;;;;;;5139141;27;20177;-59
2023/08/15 14:17:17;;;;;;;11.27;10.67;;;27.60;20.00;;;;;;5157485;27;20817;-59
2023/08/15 14:19:42;;;;;;;11.50;10.90;;;27.50;20.20;;;;;;5138885;27;20744;-60
2023/08/15 14:22:09;;;;;;;10.77;10.17;;;27.50;20.20;;;;;;5138927;27;20628;-59
2023/08/15 14:24:35;;;;;;;13.57;12.43;;;27.50;20.10;;;;;;5138923;27;20639;-58
2023/08/15 14:27:01;;;;;;;11.43;10.50;;;27.50;20.60;;;;;;5138965;27;20424;-58
2023/08/15 14:29:26;;;;;;;11.97;11.20;;;27.50;20.40;;;;;;5138423;27;20418;-58
2023/08/15 14:31:52;;;;;;;12.57;11.87;;;27.50;20.40;;;;;;5157875;27;20256;-58
2023/08/15 14:34:17;;;;;;;11.47;10.67;;;27.40;20.30;;;;;;5138631;27;20173;-58
2023/08/15 14:36:43;;;;;;;13.33;12.30;;;27.40;20.10;;;;;;5138658;27;20271;-58
2023/08/15 14:39:09;;;;;;;11.80;11.00;;;27.50;19.70;;;;;;5138534;27;20262;-57
2023/08/15 14:41:34;;;;;;;11.50;10.70;;;27.50;20.00;;;;;;5138509;27;20180;-58
2023/08/15 14:44:00;;;;;;;12.20;11.50;;;27.50;20.00;;;;;;5138519;27;20588;-57
2023/08/15 14:46:26;;;;;;;12.70;11.90;;;27.40;20.50;;;;;;5138224;27;20185;-57
2023/08/15 14:48:51;;;;;;;12.67;11.80;;;27.50;20.40;;;;;;5138451;27;20177;-57
2023/08/15 14:51:17;;;;;;;12.13;11.33;;;27.40;20.40;;;;;;5138208;27;20216;-58
2023/08/15 14:53:43;;;;;;;10.50;9.87;;;27.40;21.10;;;;;;5138422;27;20206;-58
2023/08/15 14:56:09;;;;;;;11.37;10.87;;;27.40;21.30;;;;;;5157098;27;20542;-58
2023/08/15 14:58:34;;;;;;;11.30;10.60;;;27.40;21.50;;;;;;5138067;27;20624;-58
2023/08/15 15:01:00;;;;;;;11.60;10.90;;;27.30;21.70;;;;;;5138124;27;20180;-58
2023/08/15 15:03:26;;;;;;;13.70;10.33;;;27.30;21.10;;;;;;5138156;27;20176;-58
2023/08/15 15:05:51;;;;;;;12.13;11.03;;;27.30;20.80;;;;;;5138120;27;20206;-59
2023/08/15 15:08:17;;;;;;;10.63;9.97;;;27.30;21.00;;;;;;5137809;27;20624;-58
2023/08/15 15:10:42;;;;;;;11.00;10.30;;;27.30;20.80;;;;;;5137974;27;20212;-58
2023/08/15 15:13:08;;;;;;;11.60;10.90;;;27.30;20.80;;;;;;5138016;27;20696;-58
2023/08/15 15:15:34;;;;;;;11.10;10.50;;;27.30;20.80;;;;;;5137880;27;20173;-58
2023/08/15 15:18:00;;;;;;;10.57;9.97;;;27.30;21.40;;;;;;5137730;27;20664;-60
2023/08/15 15:20:25;;;;;;;11.17;10.57;;;27.30;20.90;;;;;;5137778;27;20418;-58
2023/08/15 15:22:51;;;;;;;10.47;9.77;;;27.30;21.20;;;;;;5137401;27;20241;-56
2023/08/15 15:25:17;;;;;;;11.10;10.50;;;27.30;21.40;;;;;;5137832;27;20180;-57
2023/08/15 15:27:42;;;;;;;11.00;10.17;;;27.20;21.10;;;;;;5137718;27;20187;-57
2023/08/15 15:30:08;;;;;;;11.20;10.50;;;27.20;21.50;;;;;;5137491;27;20368;-58
2023/08/15 15:32:34;;;;;;;11.30;10.50;;;27.20;21.60;;;;;;5137499;27;20199;-59
2023/08/15 15:34:59;;;;;;;11.20;10.60;;;27.10;21.70;;;;;;5137561;27;20474;-58
2023/08/15 15:37:25;;;;;;;11.20;10.60;;;27.20;21.60;;;;;;5137458;27;20173;-58
2023/08/15 15:39:51;;;;;;;10.87;10.37;;;27.20;21.80;;;;;;5137275;27;20176;-58
2023/08/15 15:42:16;;;;;;;9.93;9.33;;;27.20;21.60;;;;;;5137401;27;20200;-60
2023/08/15 15:44:42;;;;;;;9.30;8.80;;;27.20;21.10;;;;;;5137871;27;20180;-59
2023/08/15 15:47:08;;;;;;;9.90;9.30;;;27.10;21.30;;;;;;5137752;27;20193;-59
2023/08/15 15:49:33;;;;;;;10.13;9.60;;;27.10;21.90;;;;;;5136798;27;20199;-57
2023/08/15 15:51:59;;;;;;;10.60;9.70;;;27.00;22.10;;;;;;5137343;27;20543;-57
2023/08/15 15:54:25;;;;;;;10.30;9.70;;;27.00;22.60;;;;;;5137102;27;20329;-57
2023/08/15 15:56:50;;;;;;;11.43;10.60;;;27.00;22.90;;;;;;5137230;27;20201;-57
2023/08/15 15:59:17;;;;;;;10.13;9.63;;;27.00;22.90;;;;;;5136804;27;20169;-57
2023/08/15 16:01:42;;;;;;;9.93;9.33;;;27.00;22.90;;;;;;5137039;27;20181;-57
2023/08/15 16:04:08;;;;;;;10.43;9.93;;;27.00;22.80;;;;;;5136890;27;20786;-57
2023/08/15 16:06:34;;;;;;;11.00;10.40;;;27.00;22.90;;;;;;5136826;27;20187;-57
2023/08/15 16:09:00;;;;;;;10.17;9.60;;;27.00;22.80;;;;;;5136848;27;20310;-57
2023/08/15 16:11:26;;;;;;;10.40;9.80;;;26.90;22.90;;;;;;5136683;27;20204;-57
2023/08/15 16:13:51;;;;;;;10.53;9.83;;;26.90;22.90;;;;;;5136745;27;20781;-57
2023/08/15 16:16:17;;;;;;;10.50;9.97;;;26.90;22.70;;;;;;5136636;27;20180;-57
2023/08/15 16:18:43;;;;;;;10.63;10.00;;;26.80;23.00;;;;;;5136558;27;20216;-57
2023/08/15 16:21:09;;;;;;;10.80;10.20;;;26.80;23.00;;;;;;5136786;27;20176;-57
2023/08/15 16:23:34;;;;;;;11.43;10.73;;;26.80;23.30;;;;;;5136553;27;20413;-57
2023/08/15 16:26:00;;;;;;;10.37;9.57;;;26.70;23.70;;;;;;5136527;27;20542;-57
2023/08/15 16:28:26;;;;;;;10.50;9.80;;;26.70;23.80;;;;;;5136253;27;20187;-57
2023/08/15 16:30:51;;;;;;;10.30;9.80;;;26.70;23.90;;;;;;5136466;27;20215;-58
2023/08/15 16:33:17;;;;;;;9.23;8.80;;;26.70;23.80;;;;;;5136194;27;20176;-59
2023/08/15 16:35:42;;;;;;;9.70;9.20;;;26.70;23.60;;;;;;5135484;27;20184;-59
2023/08/15 16:38:08;;;;;;;10.90;10.40;;;26.70;23.50;;;;;;5136284;27;20483;-56
2023/08/15 16:40:34;;;;;;;11.80;11.00;;;26.60;23.60;;;;;;5136216;27;20195;-56
2023/08/15 16:43:12;;;;;;;10.43;9.73;;;26.60;23.80;;;;;;5136146;27;20184;-57
2023/08/15 16:45:38;;;;;;;11.13;10.43;;;26.60;23.70;;;;;;5136235;27;20176;-57
2023/08/15 16:48:05;;;;;;;10.60;9.80;;;26.60;24.00;;;;;;5135898;27;20932;-57
2023/08/15 16:50:31;;;;;;;10.20;9.70;;;26.50;24.30;;;;;;5135674;27;20881;-56
2023/08/15 16:52:59;;;;;;;10.53;9.93;;;26.50;24.30;;;;;;5136088;27;20463;-57
2023/08/15 16:55:24;;;;;;;10.90;10.10;;;26.40;24.20;;;;;;5135974;27;20606;-57
2023/08/15 16:57:50;;;;;;;10.30;9.70;;;26.50;24.30;;;;;;5135699;27;20442;-58
2023/08/15 17:00:16;;;;;;;10.63;10.13;;;26.40;24.40;;;;;;5135747;27;20204;-57
2023/08/15 17:02:41;;;;;;;9.83;9.33;;;26.40;24.30;;;;;;5135772;27;20195;-58
2023/08/15 17:05:07;;;;;;;10.00;9.50;;;26.40;24.10;;;;;;5135916;27;20407;-57
2023/08/15 17:07:33;;;;;;;9.77;9.33;;;26.40;24.20;;;;;;5135583;27;20176;-58
2023/08/15 17:09:59;;;;;;;10.27;9.77;;;26.30;24.20;;;;;;5135367;27;20481;-58
2023/08/15 17:12:25;;;;;;;9.97;9.47;;;26.40;24.30;;;;;;5135467;27;20412;-58
2023/08/15 17:14:50;;;;;;;9.47;8.77;;;26.30;24.50;;;;;;5135708;27;20536;-58
2023/08/15 17:17:16;;;;;;;10.13;9.43;;;26.30;24.40;;;;;;5135559;27;20531;-56
2023/08/15 17:19:41;;;;;;;9.73;9.17;;;26.30;24.90;;;;;;5135302;27;20172;-57
2023/08/15 17:22:07;;;;;;;11.23;10.43;;;26.30;25.20;;;;;;5135490;27;20175;-57
2023/08/15 17:24:33;;;;;;;10.20;9.70;;;26.30;25.70;;;;;;5135377;27;20534;-57
2023/08/15 17:26:58;;;;;;;10.00;9.50;;;26.20;25.50;;;;;;5135443;27;20639;-57
2023/08/15 17:29:24;;;;;;;10.53;9.77;;;26.20;25.60;;;;;;5135090;27;20176;-57
2023/08/15 17:31:49;;;;;;;9.90;9.40;;;26.20;25.30;;;;;;5135292;27;20696;-59
2023/08/15 17:34:15;;;;;;;9.13;8.73;;;26.20;25.00;;;;;;5135301;27;20173;-60
2023/08/15 17:36:41;;;;;;;9.20;8.80;;;26.20;25.20;;;;;;5135352;27;20203;-59
2023/08/15 17:39:06;;;;;;;8.83;8.43;;;26.10;25.40;;;;;;5135220;27;20520;-58
2023/08/15 17:41:32;;;;;;;9.40;8.70;;;26.10;25.40;;;;;;5135487;27;20727;-58
2023/08/15 17:43:58;;;;;;;8.63;8.23;;;26.10;25.70;;;;;;5135201;27;20219;-58
2023/08/15 17:46:23;;;;;;;9.43;8.73;;;26.00;25.60;;;;;;5134260;27;20190;-59
2023/08/15 17:48:49;;;;;;;8.80;8.30;;;26.00;25.60;;;;;;5134861;27;20298;-58
2023/08/15 17:51:15;;;;;;;8.33;7.93;;;26.00;25.60;;;;;;5134766;27;20256;-58
2023/08/15 17:53:41;;;;;;;8.50;8.10;;;26.00;25.60;;;;;;5135079;27;20790;-59
2023/08/15 17:56:06;;;;;;;8.60;8.10;;;25.90;25.60;;;;;;5117958;27;20173;-60
2023/08/15 17:58:49;;;;;;;8.93;8.57;;;25.90;25.50;;;;;;5134831;27;20267;-60
2023/08/15 18:01:15;;;;;;;7.90;7.50;;;25.90;25.60;;;;;;5134869;27;20628;-60
2023/08/15 18:03:41;;;;;;;9.13;8.73;;;25.80;25.50;;;;;;5135011;27;20426;-60
2023/08/15 18:06:07;;;;;;;9.33;8.83;;;25.80;25.50;;;;;;5134902;27;20489;-60
2023/08/15 18:08:33;;;;;;;8.67;8.30;;;25.80;25.50;;;;;;5134705;27;20192;-60
2023/08/15 18:10:58;;;;;;;8.67;8.27;;;25.80;25.60;;;;;;5134805;27;20909;-60
2023/08/15 18:13:24;;;;;;;8.90;8.10;;;25.70;25.50;;;;;;5134841;27;20180;-60
2023/08/15 18:15:50;;;;;;;9.10;8.60;;;25.70;25.40;;;;;;5134906;27;20264;-60
2023/08/15 18:18:15;;;;;;;13.47;8.40;;;25.60;25.40;;;;;;5134562;27;20176;-57